Time;durP1;ratioP1;P1;durP2;ratioP2;P2;SDS_P1;SDS_P2;PMS_P1;PMS_P2;Temp;Humidity;BMP_temperature;BMP_pressure;BME280_temperature;BME280_humidity;BME280_pressure;Samples;Min_cycle;Max_cycle;Signal;HPM_P1;HPM_P2
2024/03/08 10:40:39;;;;;;;7.90;3.60;;;8.50;99.90;;;;;;552712;23;20500;-77
2024/03/08 10:43:19;;;;;;;9.27;3.63;;;8.40;99.90;;;;;;4887852;29;20223;-83
2024/03/08 10:45:49;;;;;;;7.30;3.77;;;8.40;99.90;;;;;;4880683;29;20234;-79
2024/03/08 10:48:31;;;;;;;9.73;3.83;;;8.60;99.90;;;;;;4880808;29;20261;-72
2024/03/08 10:50:59;;;;;;;9.30;4.20;;;8.60;99.90;;;;;;4880128;29;20294;-73
2024/03/08 10:53:29;;;;;;;6.63;3.20;;;8.60;99.90;;;;;;4880096;29;20215;-77
2024/03/08 10:55:58;;;;;;;9.47;4.03;;;8.60;99.90;;;;;;4877892;29;20243;-74
2024/03/08 10:58:28;;;;;;;7.47;3.63;;;8.80;99.90;;;;;;4877011;29;20311;-75
2024/03/08 11:00:57;;;;;;;7.90;3.27;;;8.80;99.90;;;;;;4879137;29;20222;-73
2024/03/08 11:03:48;;;;;;;7.37;3.50;;;8.80;99.90;;;;;;4879826;29;20640;-78
2024/03/08 11:06:18;;;;;;;6.63;3.13;;;8.90;99.90;;;;;;4888328;29;20283;-76
2024/03/08 11:08:45;;;;;;;10.27;4.03;;;8.80;99.90;;;;;;4883043;29;20268;-75
2024/03/08 11:11:30;;;;;;;8.57;3.60;;;9.00;99.90;;;;;;4875056;29;20216;-75
2024/03/08 11:13:59;;;;;;;7.20;3.93;;;9.10;99.90;;;;;;4876791;29;20216;-79
2024/03/08 11:16:41;;;;;;;8.70;4.00;;;9.10;99.90;;;;;;4860701;29;20608;-82
2024/03/08 11:19:31;;;;;;;9.93;4.97;;;9.20;99.90;;;;;;4860296;29;20239;-74
2024/03/08 11:22:02;;;;;;;11.17;4.03;;;9.20;99.90;;;;;;4860044;29;20212;-75
2024/03/08 11:24:37;;;;;;;8.93;4.00;;;9.10;99.90;;;;;;4859994;29;20216;-75
2024/03/08 11:27:05;;;;;;;7.93;3.70;;;9.20;99.90;;;;;;4875137;29;20218;-73
2024/03/08 11:29:39;;;;;;;9.33;3.80;;;9.20;99.90;;;;;;4877879;29;20598;-74
2024/03/08 11:32:11;;;;;;;7.57;3.40;;;9.30;99.90;;;;;;4877655;29;20601;-73
2024/03/08 11:34:38;;;;;;;8.63;4.43;;;9.30;99.90;;;;;;4877834;29;20306;-74
2024/03/08 11:37:09;;;;;;;9.23;4.50;;;9.40;99.90;;;;;;4865724;29;20327;-74
2024/03/08 11:39:38;;;;;;;11.60;4.50;;;9.50;99.90;;;;;;4859146;29;20248;-75
2024/03/08 11:42:05;;;;;;;8.67;3.93;;;9.50;99.90;;;;;;4858930;29;20222;-74
2024/03/08 11:44:32;;;;;;;10.40;4.03;;;9.50;99.90;;;;;;4859337;29;20250;-74
2024/03/08 11:47:00;;;;;;;8.70;4.00;;;9.50;99.90;;;;;;4859293;29;20259;-74
2024/03/08 11:49:28;;;;;;;9.90;4.37;;;9.40;99.90;;;;;;4859068;29;20247;-74
2024/03/08 11:51:56;;;;;;;10.87;4.00;;;9.60;99.90;;;;;;4859129;29;20218;-77
2024/03/08 11:54:23;;;;;;;11.77;3.97;;;9.70;99.90;;;;;;4858524;29;20212;-78
2024/03/08 11:56:53;;;;;;;8.93;4.17;;;9.80;99.90;;;;;;4858971;29;20304;-75
2024/03/08 11:59:21;;;;;;;9.70;4.67;;;9.90;99.90;;;;;;4859171;29;20235;-75
2024/03/08 12:02:02;;;;;;;9.33;4.53;;;9.90;99.90;;;;;;4858880;29;20299;-76
2024/03/08 12:04:29;;;;;;;9.33;4.20;;;9.80;99.90;;;;;;4875324;29;20262;-78
2024/03/08 12:06:56;;;;;;;8.90;3.93;;;9.90;99.90;;;;;;4877404;29;20219;-77
2024/03/08 12:09:23;;;;;;;10.97;3.80;;;10.00;99.90;;;;;;4877332;29;20313;-74
2024/03/08 12:11:50;;;;;;;9.00;4.23;;;10.00;99.90;;;;;;4877440;29;20211;-76
2024/03/08 12:14:18;;;;;;;10.10;4.27;;;10.10;99.90;;;;;;4878029;29;20668;-76
2024/03/08 12:16:45;;;;;;;9.87;4.70;;;10.20;99.90;;;;;;4877667;29;20696;-81
2024/03/08 12:19:13;;;;;;;9.33;3.83;;;10.30;99.90;;;;;;4878094;29;20815;-75
2024/03/08 12:21:48;;;;;;;8.73;4.20;;;10.20;99.90;;;;;;4878737;29;20625;-73
2024/03/08 12:24:19;;;;;;;9.23;3.90;;;10.40;99.90;;;;;;4878594;29;20261;-71
2024/03/08 12:26:48;;;;;;;8.97;4.47;;;10.30;99.90;;;;;;4878833;29;20219;-78
2024/03/08 12:29:20;;;;;;;8.07;3.40;;;10.30;99.90;;;;;;4878855;29;20230;-77
2024/03/08 12:31:48;;;;;;;7.07;3.90;;;10.30;99.90;;;;;;4879241;29;20215;-77
2024/03/08 12:34:16;;;;;;;9.33;4.10;;;10.40;99.90;;;;;;4878631;29;20246;-72
2024/03/08 12:36:51;;;;;;;10.37;3.93;;;10.60;99.90;;;;;;4878591;29;20274;-73
2024/03/08 12:39:22;;;;;;;6.93;3.77;;;10.80;99.90;;;;;;4866819;29;20632;-72
2024/03/08 12:41:49;;;;;;;6.93;3.43;;;10.70;99.90;;;;;;4860082;29;20268;-79
2024/03/08 12:44:16;;;;;;;7.03;3.67;;;10.70;99.90;;;;;;4862684;29;20295;-73
2024/03/08 12:46:45;;;;;;;8.63;4.03;;;10.60;99.90;;;;;;4863934;29;20247;-73
2024/03/08 12:49:12;;;;;;;9.03;3.93;;;10.70;99.90;;;;;;4863410;29;20303;-73
2024/03/08 12:51:41;;;;;;;10.50;4.13;;;10.70;99.90;;;;;;4863613;29;20309;-77
2024/03/08 12:54:08;;;;;;;9.40;3.80;;;10.70;99.90;;;;;;4863626;29;20543;-80
2024/03/08 12:56:37;;;;;;;9.60;4.17;;;10.90;99.90;;;;;;4863406;29;20330;-78
2024/03/08 12:59:05;;;;;;;7.40;3.97;;;11.10;99.90;;;;;;4863129;29;20752;-79
2024/03/08 13:01:33;;;;;;;10.73;4.10;;;11.20;99.90;;;;;;4863558;29;20216;-75
2024/03/08 13:04:00;;;;;;;8.57;4.10;;;11.10;99.90;;;;;;4863874;29;20258;-78
2024/03/08 13:06:28;;;;;;;9.20;3.93;;;11.00;99.90;;;;;;4863317;29;20672;-74
2024/03/08 13:08:56;;;;;;;7.97;3.87;;;11.10;99.90;;;;;;4863590;29;20566;-80
2024/03/08 13:11:24;;;;;;;7.80;3.50;;;11.20;99.90;;;;;;4863519;29;20216;-76
2024/03/08 13:13:52;;;;;;;8.87;4.20;;;11.20;99.90;;;;;;4863242;29;20214;-74
2024/03/08 13:16:19;;;;;;;7.07;3.73;;;11.30;99.90;;;;;;4862948;29;20228;-73
2024/03/08 13:18:48;;;;;;;7.97;3.97;;;11.40;99.90;;;;;;4862953;29;20228;-80
2024/03/08 13:21:19;;;;;;;7.67;4.00;;;11.40;99.90;;;;;;4863301;29;20220;-73
2024/03/08 13:23:49;;;;;;;9.57;4.60;;;11.30;99.90;;;;;;4863033;29;20208;-79
2024/03/08 13:26:17;;;;;;;9.23;4.07;;;11.50;99.90;;;;;;4862771;29;20212;-73
2024/03/08 13:28:46;;;;;;;8.53;4.33;;;11.60;99.90;;;;;;4862669;29;20756;-78
2024/03/08 13:31:14;;;;;;;10.27;4.67;;;11.60;99.90;;;;;;4862776;29;20211;-74
2024/03/08 13:33:42;;;;;;;9.67;4.10;;;11.60;99.90;;;;;;4862858;29;20216;-79
2024/03/08 13:36:14;;;;;;;6.83;3.47;;;11.70;99.90;;;;;;4862758;29;20211;-78
2024/03/08 13:38:43;;;;;;;7.53;3.93;;;11.70;99.90;;;;;;4862721;29;20235;-79
2024/03/08 13:41:11;;;;;;;7.53;3.97;;;11.80;99.90;;;;;;4862828;29;20231;-78
2024/03/08 13:43:40;;;;;;;10.17;4.80;;;11.80;99.90;;;;;;4862623;29;20240;-73
2024/03/08 13:46:07;;;;;;;8.03;3.87;;;11.80;99.90;;;;;;4862358;29;20215;-73
2024/03/08 13:48:34;;;;;;;8.23;3.63;;;11.80;99.90;;;;;;4863000;29;20234;-78
2024/03/08 13:51:01;;;;;;;9.27;4.50;;;11.90;99.90;;;;;;4862771;29;20242;-78
2024/03/08 13:53:28;;;;;;;7.90;3.70;;;11.90;99.90;;;;;;4862807;29;20295;-73
2024/03/08 13:55:56;;;;;;;6.57;3.37;;;11.90;99.90;;;;;;4862730;29;20243;-79
2024/03/08 13:58:23;;;;;;;8.17;4.07;;;11.90;99.90;;;;;;4861872;29;20654;-79
2024/03/08 14:00:52;;;;;;;8.23;3.87;;;11.90;99.90;;;;;;4862523;29;20208;-78
2024/03/08 14:03:18;;;;;;;7.33;3.87;;;11.90;99.90;;;;;;4861918;29;20208;-73
2024/03/08 14:05:46;;;;;;;7.37;3.80;;;12.00;99.90;;;;;;4861963;29;20298;-73
2024/03/08 14:08:13;;;;;;;9.37;4.07;;;12.00;99.90;;;;;;4861535;29;20634;-74
2024/03/08 14:10:42;;;;;;;8.93;4.07;;;12.10;99.90;;;;;;4861897;29;20299;-78
2024/03/08 14:13:09;;;;;;;9.30;4.13;;;12.10;99.90;;;;;;4862084;29;20703;-79
2024/03/08 14:15:36;;;;;;;8.63;3.70;;;12.10;99.90;;;;;;4862446;29;20258;-73
2024/03/08 14:18:06;;;;;;;9.27;4.43;;;12.10;99.90;;;;;;4862090;29;20243;-74
2024/03/08 14:20:33;;;;;;;7.90;3.70;;;12.20;99.90;;;;;;4861904;29;20216;-74
2024/03/08 14:23:00;;;;;;;7.83;4.33;;;12.20;99.90;;;;;;4862145;29;20293;-74
2024/03/08 14:25:29;;;;;;;6.97;3.63;;;12.30;99.90;;;;;;4862088;29;20244;-73
2024/03/08 14:27:58;;;;;;;9.40;4.13;;;12.30;99.90;;;;;;4861427;29;20612;-73
2024/03/08 14:30:34;;;;;;;8.80;4.53;;;12.40;99.90;;;;;;4861798;29;20212;-73
2024/03/08 14:33:02;;;;;;;8.20;3.40;;;12.60;99.90;;;;;;4861953;29;20546;-75
2024/03/08 14:35:30;;;;;;;6.13;3.37;;;12.50;99.90;;;;;;4879042;29;20271;-80
2024/03/08 14:37:58;;;;;;;8.00;3.47;;;12.50;99.90;;;;;;4879960;29;20696;-80
2024/03/08 14:40:25;;;;;;;9.50;4.13;;;12.60;99.90;;;;;;4880227;29;20221;-74
2024/03/08 14:42:52;;;;;;;8.20;4.20;;;12.70;99.90;;;;;;4879935;29;20263;-75
2024/03/08 14:45:20;;;;;;;7.37;3.73;;;12.60;99.90;;;;;;4880315;29;20242;-73
2024/03/08 14:47:49;;;;;;;6.63;3.70;;;12.60;99.90;;;;;;4880058;29;20238;-77
2024/03/08 14:50:17;;;;;;;9.47;3.50;;;12.60;99.90;;;;;;4880079;29;20221;-73
2024/03/08 14:52:48;;;;;;;7.60;3.70;;;12.60;99.90;;;;;;4880347;29;20254;-80
2024/03/08 14:55:15;;;;;;;6.50;3.73;;;12.60;99.90;;;;;;4880115;29;20242;-73
2024/03/08 14:57:45;;;;;;;6.63;3.60;;;12.60;99.90;;;;;;4879400;29;20286;-73
2024/03/08 15:00:17;;;;;;;6.47;3.90;;;12.70;99.90;;;;;;4879666;29;20272;-74
2024/03/08 15:02:44;;;;;;;7.37;3.80;;;12.70;99.90;;;;;;4879692;29;20755;-78
2024/03/08 15:05:13;;;;;;;8.10;3.60;;;12.60;99.90;;;;;;4879550;29;20239;-80
2024/03/08 15:07:40;;;;;;;7.40;3.17;;;12.60;99.90;;;;;;4879689;29;20264;-78
2024/03/08 15:10:14;;;;;;;10.43;3.80;;;12.70;99.90;;;;;;4879587;29;20208;-73
2024/03/08 15:12:42;;;;;;;6.63;3.40;;;12.70;99.90;;;;;;4879214;29;20212;-74
2024/03/08 15:15:09;;;;;;;7.77;4.20;;;12.70;99.90;;;;;;4879216;29;20306;-73
2024/03/08 15:17:39;;;;;;;10.33;4.00;;;12.70;99.90;;;;;;4879379;29;20251;-79
2024/03/08 15:20:14;;;;;;;12.50;4.13;;;12.70;99.90;;;;;;4879328;29;20222;-78
2024/03/08 15:22:42;;;;;;;6.50;3.60;;;12.60;99.90;;;;;;4879625;29;20206;-76
2024/03/08 15:25:16;;;;;;;8.03;4.00;;;12.50;99.90;;;;;;4879394;29;20318;-76
2024/03/08 15:27:44;;;;;;;7.00;3.20;;;12.60;99.90;;;;;;4879477;29;20265;-79
2024/03/08 15:30:13;;;;;;;7.70;3.67;;;12.50;99.90;;;;;;4879268;29;20294;-78
2024/03/08 15:32:41;;;;;;;8.83;3.97;;;12.60;99.90;;;;;;4879592;29;20246;-73
2024/03/08 15:35:13;;;;;;;8.13;3.70;;;12.50;99.90;;;;;;4879614;29;20203;-73
2024/03/08 15:37:42;;;;;;;8.47;3.77;;;12.50;99.90;;;;;;4878997;29;20315;-78
2024/03/08 15:40:20;;;;;;;8.23;4.00;;;12.50;99.90;;;;;;4860989;29;20291;-77
2024/03/08 15:42:55;;;;;;;7.77;3.57;;;12.50;99.90;;;;;;4861202;29;20306;-73
2024/03/08 15:45:24;;;;;;;7.13;3.73;;;12.40;99.90;;;;;;4860821;29;20700;-74
2024/03/08 15:47:51;;;;;;;8.37;3.90;;;12.50;99.90;;;;;;4860615;29;20318;-77
2024/03/08 15:50:17;;;;;;;8.73;4.03;;;12.40;99.90;;;;;;4860656;29;20303;-74
2024/03/08 15:52:47;;;;;;;8.50;4.27;;;12.50;99.90;;;;;;4860495;29;20211;-73
2024/03/08 15:55:19;;;;;;;8.33;4.07;;;12.40;99.90;;;;;;4860432;29;20254;-73
2024/03/08 15:57:48;;;;;;;10.13;5.13;;;12.30;99.90;;;;;;4860590;29;20271;-74
2024/03/08 16:00:30;;;;;;;7.50;3.90;;;12.30;99.90;;;;;;4860794;29;20300;-73
2024/03/08 16:02:57;;;;;;;8.20;3.77;;;12.30;99.90;;;;;;4860452;29;20219;-73
2024/03/08 16:05:24;;;;;;;7.13;3.40;;;12.20;99.90;;;;;;4863069;29;20306;-73
2024/03/08 16:07:51;;;;;;;8.70;4.50;;;12.20;99.90;;;;;;4878553;29;20269;-77
2024/03/08 16:10:19;;;;;;;9.00;3.97;;;12.20;99.90;;;;;;4879120;29;20302;-80
2024/03/08 16:12:46;;;;;;;9.30;4.40;;;12.10;99.90;;;;;;4876850;29;20242;-76
2024/03/08 16:15:13;;;;;;;7.90;4.07;;;12.10;99.90;;;;;;4878644;29;20693;-82
2024/03/08 16:17:40;;;;;;;5.90;3.37;;;12.10;99.90;;;;;;4878617;29;20679;-73
2024/03/08 16:20:11;;;;;;;8.17;4.13;;;12.10;99.90;;;;;;4878804;29;20214;-82
2024/03/08 16:22:38;;;;;;;11.13;3.40;;;12.10;99.90;;;;;;4875387;29;20680;-78
2024/03/08 16:25:12;;;;;;;12.10;3.87;;;12.00;99.90;;;;;;4860602;29;20211;-78
2024/03/08 16:27:39;;;;;;;10.17;3.50;;;11.90;99.90;;;;;;4876434;29;20241;-81
2024/03/08 16:30:10;;;;;;;9.10;4.10;;;11.90;99.90;;;;;;4878123;29;20696;-80
2024/03/08 16:32:38;;;;;;;7.53;3.40;;;11.80;99.90;;;;;;4874522;29;20220;-78
2024/03/08 16:35:10;;;;;;;7.23;3.83;;;11.80;99.90;;;;;;4862627;29;20210;-75
2024/03/08 16:37:37;;;;;;;9.97;3.80;;;11.70;99.90;;;;;;4878361;29;20274;-80
2024/03/08 16:40:05;;;;;;;10.27;4.63;;;11.70;99.90;;;;;;4877737;29;20259;-75
2024/03/08 16:42:32;;;;;;;7.00;3.30;;;11.70;99.90;;;;;;4876901;29;20302;-73
2024/03/08 16:45:00;;;;;;;7.93;3.60;;;11.60;99.90;;;;;;4877421;29;20242;-76
2024/03/08 16:47:27;;;;;;;9.80;4.40;;;11.50;99.90;;;;;;4877487;29;20239;-75
2024/03/08 16:49:54;;;;;;;8.73;3.07;;;11.40;99.90;;;;;;4876972;29;20306;-75
2024/03/08 16:52:22;;;;;;;8.70;3.80;;;11.40;99.90;;;;;;4875839;29;20222;-75
2024/03/08 16:54:49;;;;;;;9.53;4.07;;;11.40;99.90;;;;;;4859995;29;20212;-74
2024/03/08 16:57:16;;;;;;;6.20;2.97;;;11.40;99.90;;;;;;4876997;29;20756;-73
2024/03/08 16:59:43;;;;;;;6.77;4.10;;;11.20;99.90;;;;;;4876958;29;20211;-74
2024/03/08 17:02:12;;;;;;;9.53;3.77;;;11.20;99.90;;;;;;4876504;29;20734;-75
2024/03/08 17:04:38;;;;;;;8.73;3.23;;;11.20;99.90;;;;;;4858704;29;20219;-75
2024/03/08 17:07:08;;;;;;;7.40;3.20;;;11.10;99.90;;;;;;4859252;29;20223;-73
2024/03/08 17:09:37;;;;;;;7.07;3.57;;;11.10;99.90;;;;;;4877220;29;20574;-74
2024/03/08 17:12:06;;;;;;;7.37;3.60;;;11.00;99.90;;;;;;4876977;29;20217;-74
2024/03/08 17:14:37;;;;;;;9.40;4.60;;;11.00;99.90;;;;;;4858563;29;20311;-76
2024/03/08 17:17:04;;;;;;;7.90;4.27;;;10.90;99.90;;;;;;4876741;29;20255;-73
2024/03/08 17:19:33;;;;;;;6.33;4.00;;;10.80;99.90;;;;;;4877081;29;20326;-74
2024/03/08 17:22:03;;;;;;;6.77;3.17;;;10.80;99.90;;;;;;4877256;29;20211;-73
2024/03/08 17:24:30;;;;;;;9.57;4.00;;;10.80;99.90;;;;;;4873268;29;20241;-74
2024/03/08 17:26:58;;;;;;;7.73;3.80;;;10.80;99.90;;;;;;4876889;29;20240;-74
2024/03/08 17:29:25;;;;;;;7.83;3.87;;;10.80;99.90;;;;;;4878115;29;20239;-74
2024/03/08 17:31:53;;;;;;;9.03;3.80;;;10.80;99.90;;;;;;4880180;29;20672;-73
2024/03/08 17:34:20;;;;;;;9.27;3.70;;;10.60;99.90;;;;;;4863183;29;20208;-74
2024/03/08 17:36:49;;;;;;;6.37;3.00;;;10.60;99.90;;;;;;4871549;29;20623;-80
2024/03/08 17:39:18;;;;;;;7.60;3.37;;;10.60;99.90;;;;;;4860818;29;20291;-73
2024/03/08 17:41:49;;;;;;;7.53;3.67;;;10.50;99.90;;;;;;4861262;29;20227;-74
2024/03/08 17:44:17;;;;;;;6.10;3.37;;;10.40;99.90;;;;;;4861117;29;20306;-75
2024/03/08 17:46:45;;;;;;;7.27;3.40;;;10.30;99.90;;;;;;4877541;29;20219;-71
2024/03/08 17:49:12;;;;;;;7.43;3.40;;;10.20;99.90;;;;;;4879817;29;20262;-74
2024/03/08 17:51:39;;;;;;;7.07;3.43;;;10.20;99.90;;;;;;4879436;29;20222;-73
2024/03/08 17:54:10;;;;;;;8.20;3.40;;;10.20;99.90;;;;;;4865065;29;20303;-75
2024/03/08 17:56:38;;;;;;;8.50;3.83;;;10.30;99.90;;;;;;4875769;29;20729;-75
2024/03/08 17:59:07;;;;;;;8.50;3.63;;;10.10;99.90;;;;;;4879644;29;20249;-74
2024/03/08 18:01:36;;;;;;;8.97;3.63;;;10.10;99.90;;;;;;4879869;29;20211;-73
2024/03/08 18:04:06;;;;;;;9.67;3.40;;;10.10;99.90;;;;;;4865755;29;20212;-75
2024/03/08 18:06:36;;;;;;;10.90;3.60;;;10.00;99.90;;;;;;4883436;29;20615;-76
2024/03/08 18:09:09;;;;;;;7.50;3.03;;;9.90;99.90;;;;;;4888008;29;20323;-72
2024/03/08 18:11:38;;;;;;;13.77;3.47;;;9.90;99.90;;;;;;4884226;29;20215;-73
2024/03/08 18:14:08;;;;;;;8.70;3.83;;;9.90;99.90;;;;;;4883948;29;20695;-75
2024/03/08 18:16:38;;;;;;;8.30;4.00;;;9.80;99.90;;;;;;4881912;29;20572;-74
2024/03/08 18:19:07;;;;;;;7.50;3.33;;;9.80;99.90;;;;;;4872621;29;20250;-74
2024/03/08 18:21:36;;;;;;;7.47;3.50;;;9.70;99.90;;;;;;4869665;29;20215;-74
2024/03/08 18:24:03;;;;;;;10.33;3.20;;;9.60;99.90;;;;;;4864510;29;20212;-75
2024/03/08 18:26:33;;;;;;;7.03;3.33;;;9.60;99.90;;;;;;4868984;29;20735;-74
2024/03/08 18:29:03;;;;;;;8.13;3.93;;;9.60;99.90;;;;;;4875905;29;20235;-75
2024/03/08 18:31:31;;;;;;;7.73;3.50;;;9.50;99.90;;;;;;4874068;29;20617;-75
2024/03/08 18:33:59;;;;;;;10.53;4.57;;;9.40;99.90;;;;;;4869680;29;20215;-75
2024/03/08 18:36:26;;;;;;;7.03;3.10;;;9.50;99.90;;;;;;4878532;29;20215;-74
2024/03/08 18:38:53;;;;;;;9.33;3.90;;;9.40;99.90;;;;;;4878429;29;20308;-72
2024/03/08 18:41:20;;;;;;;8.83;4.17;;;9.30;99.90;;;;;;4876955;29;20255;-73
2024/03/08 18:43:47;;;;;;;8.00;3.83;;;9.40;99.90;;;;;;4867170;29;20303;-72
2024/03/08 18:46:15;;;;;;;6.00;2.93;;;9.40;99.90;;;;;;4878043;29;20243;-72
2024/03/08 18:48:42;;;;;;;8.23;3.63;;;9.40;99.90;;;;;;4873290;29;20315;-72
2024/03/08 18:51:09;;;;;;;11.10;3.70;;;9.40;99.90;;;;;;4878051;29;20243;-73
2024/03/08 18:53:41;;;;;;;8.63;3.83;;;9.30;99.90;;;;;;4876034;29;20250;-74
2024/03/08 18:56:08;;;;;;;8.80;3.50;;;9.30;99.90;;;;;;4877620;29;20207;-75
2024/03/08 18:58:35;;;;;;;7.17;3.30;;;9.30;99.90;;;;;;4868797;29;20243;-72
2024/03/08 19:01:05;;;;;;;10.83;5.07;;;9.30;99.90;;;;;;4874902;29;20291;-72
2024/03/08 19:03:34;;;;;;;11.13;3.97;;;9.20;99.90;;;;;;4877782;29;20215;-73
2024/03/08 19:06:01;;;;;;;8.43;3.20;;;9.10;99.90;;;;;;4878026;29;20215;-74
2024/03/08 19:08:30;;;;;;;8.37;3.50;;;9.10;99.90;;;;;;4877731;29;21085;-75
2024/03/08 19:10:57;;;;;;;9.50;4.00;;;9.10;99.90;;;;;;4877868;29;20676;-76
2024/03/08 19:13:24;;;;;;;7.83;3.53;;;9.00;99.90;;;;;;4875841;29;20255;-73
2024/03/08 19:15:51;;;;;;;8.47;3.97;;;9.00;99.90;;;;;;4874230;29;20298;-76
2024/03/08 19:18:19;;;;;;;8.40;3.90;;;9.00;99.90;;;;;;4875224;29;20254;-80
2024/03/08 19:20:47;;;;;;;8.87;4.17;;;8.90;99.90;;;;;;4877646;29;20306;-74
2024/03/08 19:23:14;;;;;;;9.70;4.30;;;8.80;99.90;;;;;;4877858;29;20243;-72
2024/03/08 19:25:42;;;;;;;9.47;4.37;;;8.80;99.90;;;;;;4877952;29;20249;-74
2024/03/08 19:28:12;;;;;;;8.03;3.60;;;8.70;99.90;;;;;;4873059;29;20235;-74
2024/03/08 19:30:40;;;;;;;12.37;4.67;;;8.60;99.90;;;;;;4875299;29;20208;-74
2024/03/08 19:33:11;;;;;;;9.80;3.90;;;8.60;99.90;;;;;;4876942;29;20215;-73
2024/03/08 19:35:38;;;;;;;9.77;4.57;;;8.50;99.90;;;;;;4866102;29;20302;-77
2024/03/08 19:38:10;;;;;;;11.40;4.13;;;8.50;99.90;;;;;;4876477;29;20265;-73
2024/03/08 19:40:40;;;;;;;9.40;3.93;;;8.40;99.90;;;;;;4877196;29;20303;-74
2024/03/08 19:43:10;;;;;;;8.67;4.13;;;8.40;99.90;;;;;;4877156;29;20245;-74
2024/03/08 19:45:38;;;;;;;9.00;3.93;;;8.40;99.90;;;;;;4877935;29;20695;-75
2024/03/08 19:48:09;;;;;;;7.27;3.27;;;8.40;99.90;;;;;;4877383;29;20310;-73
2024/03/08 19:50:40;;;;;;;10.67;3.80;;;8.40;99.90;;;;;;4874491;29;20223;-74
2024/03/08 19:53:09;;;;;;;9.97;3.47;;;8.40;99.90;;;;;;4875159;29;20241;-73
2024/03/08 19:55:37;;;;;;;7.70;4.20;;;8.40;99.90;;;;;;4877246;29;20211;-72
2024/03/08 19:58:06;;;;;;;11.80;5.30;;;8.50;99.90;;;;;;4877417;29;20283;-74
2024/03/08 20:00:33;;;;;;;7.63;3.63;;;8.50;99.90;;;;;;4877586;29;20215;-75
2024/03/08 20:03:01;;;;;;;8.73;3.73;;;8.60;99.90;;;;;;4877134;29;20306;-73
2024/03/08 20:05:30;;;;;;;7.60;3.50;;;8.60;99.90;;;;;;4876838;29;20306;-73
2024/03/08 20:08:03;;;;;;;9.03;4.07;;;8.60;99.90;;;;;;4877139;29;20235;-76
2024/03/08 20:10:36;;;;;;;9.27;4.20;;;8.70;99.90;;;;;;4877482;29;20588;-76
2024/03/08 20:13:07;;;;;;;9.50;3.90;;;8.70;99.90;;;;;;4877285;29;20211;-73
2024/03/08 20:15:37;;;;;;;8.70;4.03;;;8.80;99.90;;;;;;4877725;29;20222;-74
2024/03/08 20:18:05;;;;;;;14.20;3.33;;;8.70;99.90;;;;;;4877367;29;20226;-75
2024/03/08 20:20:35;;;;;;;8.73;3.53;;;8.80;99.90;;;;;;4877491;29;20321;-77
2024/03/08 20:23:03;;;;;;;10.30;4.10;;;8.80;99.90;;;;;;4876916;29;20222;-74
2024/03/08 20:25:33;;;;;;;7.93;3.83;;;8.90;99.90;;;;;;4878694;29;20211;-75
2024/03/08 20:28:00;;;;;;;10.53;4.00;;;8.90;99.90;;;;;;4878733;29;20318;-74
2024/03/08 20:30:29;;;;;;;7.67;3.37;;;8.90;99.90;;;;;;4878806;29;20234;-76
2024/03/08 20:32:59;;;;;;;7.43;3.60;;;8.90;99.90;;;;;;4879371;29;20238;-77
2024/03/08 20:35:28;;;;;;;10.10;4.67;;;8.80;99.90;;;;;;4879695;29;20237;-77
2024/03/08 20:37:56;;;;;;;10.87;3.43;;;8.90;99.90;;;;;;4880352;29;20231;-76
2024/03/08 20:40:28;;;;;;;7.20;3.20;;;8.80;99.90;;;;;;4867014;29;20282;-76
2024/03/08 20:42:57;;;;;;;8.07;3.93;;;8.70;99.90;;;;;;4878926;29;20218;-73
2024/03/08 20:45:25;;;;;;;11.57;3.83;;;8.70;99.90;;;;;;4878541;29;20217;-74
2024/03/08 20:47:52;;;;;;;9.77;4.47;;;8.70;99.90;;;;;;4878117;29;20235;-73
2024/03/08 20:50:23;;;;;;;9.43;3.97;;;8.70;99.90;;;;;;4878862;29;20313;-74
2024/03/08 20:52:52;;;;;;;7.17;3.30;;;8.80;99.90;;;;;;4878297;29;20252;-73
2024/03/08 20:55:21;;;;;;;8.90;3.60;;;8.90;99.90;;;;;;4868655;29;20705;-74
2024/03/08 20:57:49;;;;;;;8.60;3.70;;;8.90;99.90;;;;;;4875307;29;20231;-73
2024/03/08 21:00:34;;;;;;;10.67;3.70;;;8.90;99.90;;;;;;4878414;29;20250;-74
2024/03/08 21:03:03;;;;;;;10.10;4.53;;;8.90;99.90;;;;;;4878174;29;20265;-75
2024/03/08 21:05:31;;;;;;;6.43;3.13;;;8.90;99.90;;;;;;4881460;29;20214;-73
2024/03/08 21:07:59;;;;;;;9.07;4.27;;;8.90;99.90;;;;;;4870068;29;20761;-73
2024/03/08 21:10:29;;;;;;;7.80;4.23;;;8.90;99.90;;;;;;4881820;29;20651;-73
2024/03/08 21:12:56;;;;;;;8.33;3.33;;;8.80;99.90;;;;;;4882025;29;20215;-74
2024/03/08 21:15:25;;;;;;;6.77;3.07;;;8.90;99.90;;;;;;4881735;29;20397;-74
2024/03/08 21:17:52;;;;;;;9.90;4.17;;;9.00;99.90;;;;;;4881540;29;20313;-75
2024/03/08 21:20:20;;;;;;;8.17;3.90;;;8.90;99.90;;;;;;4881351;29;20242;-74
2024/03/08 21:22:47;;;;;;;9.13;3.80;;;8.90;99.90;;;;;;4881969;29;20302;-74
2024/03/08 21:25:15;;;;;;;7.93;3.63;;;8.80;99.90;;;;;;4881718;29;20301;-74
2024/03/08 21:27:43;;;;;;;8.67;4.40;;;8.80;99.90;;;;;;4881337;29;20238;-74
2024/03/08 21:30:13;;;;;;;8.03;4.00;;;8.70;99.90;;;;;;4881316;29;20245;-73
2024/03/08 21:32:42;;;;;;;8.83;3.60;;;8.80;99.90;;;;;;4882072;29;20231;-73
2024/03/08 21:35:09;;;;;;;8.67;4.00;;;8.70;99.90;;;;;;4876824;29;20211;-75
2024/03/08 21:37:36;;;;;;;10.07;4.37;;;8.60;99.90;;;;;;4877808;29;20235;-73
2024/03/08 21:40:05;;;;;;;9.70;3.80;;;8.60;99.90;;;;;;4881278;29;20334;-74
2024/03/08 21:42:33;;;;;;;10.27;3.97;;;8.60;99.90;;;;;;4881040;29;20219;-74
2024/03/08 21:45:03;;;;;;;10.23;4.10;;;8.50;99.90;;;;;;4881107;29;20225;-74
2024/03/08 21:47:30;;;;;;;7.93;3.77;;;8.50;99.90;;;;;;4881007;29;20314;-73
2024/03/08 21:49:58;;;;;;;9.07;3.83;;;8.50;99.90;;;;;;4880943;29;20246;-76
2024/03/08 21:52:26;;;;;;;8.20;4.20;;;8.50;99.90;;;;;;4881091;29;20687;-75
2024/03/08 21:54:53;;;;;;;11.70;4.43;;;8.50;99.90;;;;;;4881046;29;20203;-78
2024/03/08 21:57:20;;;;;;;10.33;3.93;;;8.40;99.90;;;;;;4881013;29;20215;-74
2024/03/08 21:59:47;;;;;;;8.70;4.20;;;8.40;99.90;;;;;;4881167;29;20330;-75
2024/03/08 22:02:15;;;;;;;9.43;4.40;;;8.30;99.90;;;;;;4881048;29;20298;-74
2024/03/08 22:04:42;;;;;;;8.87;3.97;;;8.30;99.90;;;;;;4880734;29;20218;-74
2024/03/08 22:07:11;;;;;;;12.27;4.90;;;8.40;99.90;;;;;;4880429;29;20215;-74
2024/03/08 22:09:38;;;;;;;9.17;3.90;;;8.40;99.90;;;;;;4880624;29;20211;-74
2024/03/08 22:12:08;;;;;;;7.47;3.50;;;8.30;99.90;;;;;;4880878;29;20211;-76
2024/03/08 22:14:35;;;;;;;7.83;3.87;;;8.20;99.90;;;;;;4880854;29;20254;-74
2024/03/08 22:17:03;;;;;;;10.23;4.53;;;8.20;99.90;;;;;;4880893;29;20560;-75
